sensor_id;sensor_type;location;lat;lon;timestamp;pressure;altitude;pressure_sealevel;temperature;humidity
42591;BME280;28218;53.342;-6.216;2023-12-29T00:00:06;99617.72;;;7.66;100.00
42591;BME280;28218;53.342;-6.216;2023-12-29T00:02:35;99622.50;;;7.63;100.00
42591;BME280;28218;53.342;-6.216;2023-12-29T00:05:04;99623.47;;;7.62;100.00
42591;BME280;28218;53.342;-6.216;2023-12-29T00:07:32;99620.41;;;7.58;100.00
42591;BME280;28218;53.342;-6.216;2023-12-29T00:10:03;99619.59;;;7.58;100.00
42591;BME280;28218;53.342;-6.216;2023-12-29T00:12:32;99625.00;;;7.56;100.00
42591;BME280;28218;53.342;-6.216;2023-12-29T00:15:01;99617.13;;;7.56;100.00
42591;BME280;28218;53.342;-6.216;2023-12-29T00:17:30;99626.47;;;7.59;100.00
42591;BME280;28218;53.342;-6.216;2023-12-29T00:19:58;99606.66;;;7.56;100.00
42591;BME280;28218;53.342;-6.216;2023-12-29T00:22:28;99618.75;;;7.57;100.00
42591;BME280;28218;53.342;-6.216;2023-12-29T00:24:57;99617.13;;;7.56;100.00
42591;BME280;28218;53.342;-6.216;2023-12-29T00:27:27;99612.06;;;7.55;100.00
42591;BME280;28218;53.342;-6.216;2023-12-29T00:29:55;99629.72;;;7.61;100.00
42591;BME280;28218;53.342;-6.216;2023-12-29T00:32:23;99633.53;;;7.58;100.00
42591;BME280;28218;53.342;-6.216;2023-12-29T00:34:52;99621.22;;;7.59;100.00
42591;BME280;28218;53.342;-6.216;2023-12-29T00:37:20;99617.78;;;7.58;100.00
42591;BME280;28218;53.342;-6.216;2023-12-29T00:39:49;99628.63;;;7.55;100.00
42591;BME280;28218;53.342;-6.216;2023-12-29T00:42:18;99614.03;;;7.53;100.00
42591;BME280;28218;53.342;-6.216;2023-12-29T00:44:47;99607.03;;;7.53;100.00
42591;BME280;28218;53.342;-6.216;2023-12-29T00:47:16;99617.50;;;7.53;100.00
42591;BME280;28218;53.342;-6.216;2023-12-29T00:49:46;99618.13;;;7.55;100.00
42591;BME280;28218;53.342;-6.216;2023-12-29T00:52:14;99623.56;;;7.54;100.00
42591;BME280;28218;53.342;-6.216;2023-12-29T00:54:43;99630.44;;;7.55;100.00
42591;BME280;28218;53.342;-6.216;2023-12-29T00:57:11;99616.66;;;7.53;100.00
42591;BME280;28218;53.342;-6.216;2023-12-29T00:59:40;99603.22;;;7.56;100.00
42591;BME280;28218;53.342;-6.216;2023-12-29T01:02:12;99618.13;;;7.55;100.00
42591;BME280;28218;53.342;-6.216;2023-12-29T01:04:40;99634.03;;;7.54;100.00
42591;BME280;28218;53.342;-6.216;2023-12-29T01:07:08;99630.94;;;7.50;100.00
42591;BME280;28218;53.342;-6.216;2023-12-29T01:09:38;99621.28;;;7.51;100.00
42591;BME280;28218;53.342;-6.216;2023-12-29T01:12:07;99637.63;;;7.53;100.00
42591;BME280;28218;53.342;-6.216;2023-12-29T01:14:35;99640.44;;;7.51;100.00
42591;BME280;28218;53.342;-6.216;2023-12-29T01:17:04;99639.16;;;7.47;100.00
42591;BME280;28218;53.342;-6.216;2023-12-29T01:19:34;99623.59;;;7.46;100.00
42591;BME280;28218;53.342;-6.216;2023-12-29T01:22:03;99624.25;;;7.48;100.00
42591;BME280;28218;53.342;-6.216;2023-12-29T01:24:31;99634.28;;;7.44;100.00
42591;BME280;28218;53.342;-6.216;2023-12-29T01:27:13;99637.06;;;7.42;100.00
42591;BME280;28218;53.342;-6.216;2023-12-29T01:29:42;99651.44;;;7.47;100.00
42591;BME280;28218;53.342;-6.216;2023-12-29T01:32:10;99664.56;;;7.47;100.00
42591;BME280;28218;53.342;-6.216;2023-12-29T01:34:40;99645.09;;;7.41;100.00
42591;BME280;28218;53.342;-6.216;2023-12-29T01:37:09;99637.41;;;7.39;100.00
42591;BME280;28218;53.342;-6.216;2023-12-29T01:39:37;99644.47;;;7.39;100.00
42591;BME280;28218;53.342;-6.216;2023-12-29T01:42:07;99650.16;;;7.42;100.00
42591;BME280;28218;53.342;-6.216;2023-12-29T01:44:38;99672.47;;;7.38;100.00
42591;BME280;28218;53.342;-6.216;2023-12-29T01:47:11;99663.91;;;7.45;100.00
42591;BME280;28218;53.342;-6.216;2023-12-29T01:49:44;99661.44;;;7.43;100.00
42591;BME280;28218;53.342;-6.216;2023-12-29T01:52:14;99659.69;;;7.43;100.00
42591;BME280;28218;53.342;-6.216;2023-12-29T01:54:46;99646.72;;;7.42;100.00
42591;BME280;28218;53.342;-6.216;2023-12-29T01:57:16;99651.50;;;7.38;100.00
42591;BME280;28218;53.342;-6.216;2023-12-29T01:59:44;99679.16;;;7.41;100.00
42591;BME280;28218;53.342;-6.216;2023-12-29T02:02:14;99656.72;;;7.38;100.00
42591;BME280;28218;53.342;-6.216;2023-12-29T02:04:44;99664.78;;;7.37;100.00
42591;BME280;28218;53.342;-6.216;2023-12-29T02:07:13;99673.16;;;7.32;100.00
42591;BME280;28218;53.342;-6.216;2023-12-29T02:09:41;99654.47;;;7.35;100.00
42591;BME280;28218;53.342;-6.216;2023-12-29T02:12:11;99678.06;;;7.35;100.00
42591;BME280;28218;53.342;-6.216;2023-12-29T02:14:39;99684.13;;;7.36;100.00
42591;BME280;28218;53.342;-6.216;2023-12-29T02:17:12;99675.59;;;7.34;100.00
42591;BME280;28218;53.342;-6.216;2023-12-29T02:19:44;99676.44;;;7.34;100.00
42591;BME280;28218;53.342;-6.216;2023-12-29T02:22:14;99668.56;;;7.34;100.00
42591;BME280;28218;53.342;-6.216;2023-12-29T02:24:47;99676.25;;;7.36;100.00
42591;BME280;28218;53.342;-6.216;2023-12-29T02:27:31;99697.22;;;7.36;100.00
42591;BME280;28218;53.342;-6.216;2023-12-29T02:30:09;99687.25;;;7.31;100.00
42591;BME280;28218;53.342;-6.216;2023-12-29T02:32:39;99680.03;;;7.33;100.00
42591;BME280;28218;53.342;-6.216;2023-12-29T02:35:09;99695.13;;;7.31;100.00
42591;BME280;28218;53.342;-6.216;2023-12-29T02:37:39;99695.63;;;7.27;100.00
42591;BME280;28218;53.342;-6.216;2023-12-29T02:40:11;99700.88;;;7.27;100.00
42591;BME280;28218;53.342;-6.216;2023-12-29T02:42:41;99713.97;;;7.27;100.00
42591;BME280;28218;53.342;-6.216;2023-12-29T02:45:21;99696.44;;;7.27;100.00
42591;BME280;28218;53.342;-6.216;2023-12-29T02:47:50;99711.34;;;7.27;100.00
42591;BME280;28218;53.342;-6.216;2023-12-29T02:50:18;99724.44;;;7.27;100.00
42591;BME280;28218;53.342;-6.216;2023-12-29T02:52:47;99715.78;;;7.26;100.00
42591;BME280;28218;53.342;-6.216;2023-12-29T02:55:16;99713.16;;;7.26;100.00
42591;BME280;28218;53.342;-6.216;2023-12-29T02:57:45;99708.44;;;7.22;100.00
42591;BME280;28218;53.342;-6.216;2023-12-29T03:00:14;99716.47;;;7.20;100.00
42591;BME280;28218;53.342;-6.216;2023-12-29T03:02:42;99732.19;;;7.20;100.00
42591;BME280;28218;53.342;-6.216;2023-12-29T03:05:14;99731.53;;;7.18;100.00
42591;BME280;28218;53.342;-6.216;2023-12-29T03:07:46;99720.06;;;7.19;100.00
42591;BME280;28218;53.342;-6.216;2023-12-29T03:10:20;99721.22;;;7.16;100.00
42591;BME280;28218;53.342;-6.216;2023-12-29T03:12:49;99725.66;;;7.16;100.00
42591;BME280;28218;53.342;-6.216;2023-12-29T03:15:17;99729.09;;;7.16;100.00
42591;BME280;28218;53.342;-6.216;2023-12-29T03:17:46;99730.06;;;7.15;100.00
42591;BME280;28218;53.342;-6.216;2023-12-29T03:20:14;99722.03;;;7.17;100.00
42591;BME280;28218;53.342;-6.216;2023-12-29T03:22:43;99736.94;;;7.16;100.00
42591;BME280;28218;53.342;-6.216;2023-12-29T03:25:11;99731.53;;;7.18;100.00
42591;BME280;28218;53.342;-6.216;2023-12-29T03:27:41;99740.88;;;7.21;100.00
42591;BME280;28218;53.342;-6.216;2023-12-29T03:30:10;99733.81;;;7.21;100.00
42591;BME280;28218;53.342;-6.216;2023-12-29T03:32:39;99761.63;;;7.22;100.00
42591;BME280;28218;53.342;-6.216;2023-12-29T03:35:08;99733.81;;;7.21;100.00
42591;BME280;28218;53.342;-6.216;2023-12-29T03:37:39;99747.06;;;7.20;100.00
42591;BME280;28218;53.342;-6.216;2023-12-29T03:40:08;99755.78;;;7.20;100.00
42591;BME280;28218;53.342;-6.216;2023-12-29T03:42:36;99753.16;;;7.20;100.00
42591;BME280;28218;53.342;-6.216;2023-12-29T03:45:08;99751.97;;;7.23;100.00
42591;BME280;28218;53.342;-6.216;2023-12-29T03:47:36;99759.19;;;7.21;100.00
42591;BME280;28218;53.342;-6.216;2023-12-29T03:50:06;99770.66;;;7.20;100.00
42591;BME280;28218;53.342;-6.216;2023-12-29T03:52:34;99768.03;;;7.20;100.00
42591;BME280;28218;53.342;-6.216;2023-12-29T03:55:03;99768.38;;;7.16;100.00
42591;BME280;28218;53.342;-6.216;2023-12-29T03:57:32;99766.09;;;7.13;100.00
42591;BME280;28218;53.342;-6.216;2023-12-29T04:00:00;99765.91;;;7.15;100.00
42591;BME280;28218;53.342;-6.216;2023-12-29T04:02:30;99766.56;;;7.17;100.00
42591;BME280;28218;53.342;-6.216;2023-12-29T04:04:58;99770.50;;;7.13;100.00
42591;BME280;28218;53.342;-6.216;2023-12-29T04:07:28;99774.94;;;7.12;100.00
42591;BME280;28218;53.342;-6.216;2023-12-29T04:09:56;99792.16;;;7.07;100.00
42591;BME280;28218;53.342;-6.216;2023-12-29T04:12:24;99782.31;;;7.09;100.00
42591;BME280;28218;53.342;-6.216;2023-12-29T04:14:52;99792.78;;;7.09;100.00
42591;BME280;28218;53.342;-6.216;2023-12-29T04:17:21;99790.16;;;7.09;100.00
42591;BME280;28218;53.342;-6.216;2023-12-29T04:19:54;99805.25;;;7.07;100.00
42591;BME280;28218;53.342;-6.216;2023-12-29T04:22:31;99798.38;;;7.06;100.00
42591;BME280;28218;53.342;-6.216;2023-12-29T04:25:00;99812.94;;;7.08;100.00
42591;BME280;28218;53.342;-6.216;2023-12-29T04:27:29;99805.88;;;7.09;100.00
42591;BME280;28218;53.342;-6.216;2023-12-29T04:29:57;99811.78;;;7.11;100.00
42591;BME280;28218;53.342;-6.216;2023-12-29T04:32:25;99823.09;;;7.11;100.00
42591;BME280;28218;53.342;-6.216;2023-12-29T04:34:55;99822.28;;;7.11;100.00
42591;BME280;28218;53.342;-6.216;2023-12-29T04:37:29;99818.66;;;7.12;100.00
42591;BME280;28218;53.342;-6.216;2023-12-29T04:39:57;99830.75;;;7.13;100.00
42591;BME280;28218;53.342;-6.216;2023-12-29T04:42:26;99827.50;;;7.11;100.00
42591;BME280;28218;53.342;-6.216;2023-12-29T04:44:54;99830.28;;;7.09;100.00
42591;BME280;28218;53.342;-6.216;2023-12-29T04:47:23;99837.00;;;7.12;100.00
42591;BME280;28218;53.342;-6.216;2023-12-29T04:49:51;99828.31;;;7.11;100.00
42591;BME280;28218;53.342;-6.216;2023-12-29T04:52:21;99820.63;;;7.10;100.00
42591;BME280;28218;53.342;-6.216;2023-12-29T04:54:49;99826.03;;;7.08;100.00
42591;BME280;28218;53.342;-6.216;2023-12-29T04:57:19;99837.50;;;7.07;100.00
42591;BME280;28218;53.342;-6.216;2023-12-29T04:59:47;99823.72;;;7.05;100.00
42591;BME280;28218;53.342;-6.216;2023-12-29T05:02:16;99822.91;;;7.05;100.00
42591;BME280;28218;53.342;-6.216;2023-12-29T05:04:46;99827.22;;;6.98;100.00
42591;BME280;28218;53.342;-6.216;2023-12-29T05:07:14;99828.84;;;6.99;100.00
42591;BME280;28218;53.342;-6.216;2023-12-29T05:09:44;99828.84;;;6.99;100.00
42591;BME280;28218;53.342;-6.216;2023-12-29T05:12:12;99829.81;;;6.98;100.00
42591;BME280;28218;53.342;-6.216;2023-12-29T05:14:41;99823.28;;;6.94;100.00
42591;BME280;28218;53.342;-6.216;2023-12-29T05:17:09;99839.16;;;6.92;100.00
42591;BME280;28218;53.342;-6.216;2023-12-29T05:19:37;99842.44;;;6.94;100.00
42591;BME280;28218;53.342;-6.216;2023-12-29T05:22:05;99835.38;;;6.95;100.00
42591;BME280;28218;53.342;-6.216;2023-12-29T05:24:34;99839.16;;;6.92;100.00
42591;BME280;28218;53.342;-6.216;2023-12-29T05:27:04;99837.50;;;6.91;100.00
42591;BME280;28218;53.342;-6.216;2023-12-29T05:29:32;99839.16;;;6.92;100.00
42591;BME280;28218;53.342;-6.216;2023-12-29T05:32:00;99836.56;;;6.92;100.00
42591;BME280;28218;53.342;-6.216;2023-12-29T05:34:29;99830.63;;;6.90;100.00
42591;BME280;28218;53.342;-6.216;2023-12-29T05:36:58;99830.63;;;6.90;100.00
42591;BME280;28218;53.342;-6.216;2023-12-29T05:39:26;99842.59;;;6.93;100.00
42591;BME280;28218;53.342;-6.216;2023-12-29T05:41:56;99843.56;;;6.91;100.00
42591;BME280;28218;53.342;-6.216;2023-12-29T05:44:25;99845.22;;;6.93;100.00
42591;BME280;28218;53.342;-6.216;2023-12-29T05:46:57;99843.09;;;6.88;100.00
42591;BME280;28218;53.342;-6.216;2023-12-29T05:49:25;99855.19;;;6.89;100.00
42591;BME280;28218;53.342;-6.216;2023-12-29T05:51:56;99846.72;;;6.87;100.00
42591;BME280;28218;53.342;-6.216;2023-12-29T05:54:35;99864.50;;;6.91;100.00
42591;BME280;28218;53.342;-6.216;2023-12-29T05:57:03;99851.28;;;6.93;100.00
42591;BME280;28218;53.342;-6.216;2023-12-29T05:59:33;99856.50;;;6.93;100.00
42591;BME280;28218;53.342;-6.216;2023-12-29T06:02:02;99870.75;;;6.90;100.00
42591;BME280;28218;53.342;-6.216;2023-12-29T06:04:30;99863.56;;;6.93;100.00
42591;BME280;28218;53.342;-6.216;2023-12-29T06:06:59;99866.50;;;6.89;100.00
42591;BME280;28218;53.342;-6.216;2023-12-29T06:09:27;99872.91;;;6.87;100.00
42591;BME280;28218;53.342;-6.216;2023-12-29T06:11:56;99866.34;;;6.83;100.00
42591;BME280;28218;53.342;-6.216;2023-12-29T06:14:24;99878.63;;;6.82;100.00
42591;BME280;28218;53.342;-6.216;2023-12-29T06:16:54;99870.41;;;6.85;100.00
42591;BME280;28218;53.342;-6.216;2023-12-29T06:19:22;99875.66;;;6.85;100.00
42591;BME280;28218;53.342;-6.216;2023-12-29T06:21:51;99880.06;;;6.85;100.00
42591;BME280;28218;53.342;-6.216;2023-12-29T06:24:19;99884.50;;;6.84;100.00
42591;BME280;28218;53.342;-6.216;2023-12-29T06:26:47;99895.97;;;6.83;100.00
42591;BME280;28218;53.342;-6.216;2023-12-29T06:29:15;99892.84;;;6.80;100.00
42591;BME280;28218;53.342;-6.216;2023-12-29T06:31:46;99901.50;;;6.80;100.00
42591;BME280;28218;53.342;-6.216;2023-12-29T06:34:18;99904.13;;;6.80;100.00
42591;BME280;28218;53.342;-6.216;2023-12-29T06:36:47;99907.56;;;6.81;100.00
42591;BME280;28218;53.342;-6.216;2023-12-29T06:39:15;99897.75;;;6.75;100.00
42591;BME280;28218;53.342;-6.216;2023-12-29T06:41:43;99911.00;;;6.81;100.00
42591;BME280;28218;53.342;-6.216;2023-12-29T06:44:11;99911.19;;;6.80;100.00
42591;BME280;28218;53.342;-6.216;2023-12-29T06:46:40;99912.00;;;6.80;100.00
42591;BME280;28218;53.342;-6.216;2023-12-29T06:49:08;99902.50;;;6.79;100.00
42591;BME280;28218;53.342;-6.216;2023-12-29T06:51:38;99906.94;;;6.79;100.00
42591;BME280;28218;53.342;-6.216;2023-12-29T06:54:09;99901.50;;;6.80;100.00
42591;BME280;28218;53.342;-6.216;2023-12-29T06:56:37;99910.19;;;6.81;100.00
42591;BME280;28218;53.342;-6.216;2023-12-29T06:59:08;99916.09;;;6.75;100.00
42591;BME280;28218;53.342;-6.216;2023-12-29T07:01:38;99922.63;;;6.79;100.00
42591;BME280;28218;53.342;-6.216;2023-12-29T07:04:08;99919.69;;;6.74;100.00
42591;BME280;28218;53.342;-6.216;2023-12-29T07:06:39;99920.81;;;6.71;100.00
42591;BME280;28218;53.342;-6.216;2023-12-29T07:09:07;99917.38;;;6.71;100.00
42591;BME280;28218;53.342;-6.216;2023-12-29T07:11:36;99934.09;;;6.70;100.00
42591;BME280;28218;53.342;-6.216;2023-12-29T07:14:07;99931.47;;;6.70;100.00
42591;BME280;28218;53.342;-6.216;2023-12-29T07:16:35;99930.31;;;6.72;100.00
42591;BME280;28218;53.342;-6.216;2023-12-29T07:19:04;99938.84;;;6.74;100.00
42591;BME280;28218;53.342;-6.216;2023-12-29T07:21:33;99941.28;;;6.76;100.00
42591;BME280;28218;53.342;-6.216;2023-12-29T07:24:03;99945.38;;;6.78;100.00
42591;BME280;28218;53.342;-6.216;2023-12-29T07:26:32;99938.50;;;6.77;100.00
42591;BME280;28218;53.342;-6.216;2023-12-29T07:29:02;99942.59;;;6.80;100.00
42591;BME280;28218;53.342;-6.216;2023-12-29T07:31:31;99928.00;;;6.77;100.00
42591;BME280;28218;53.342;-6.216;2023-12-29T07:34:00;99949.31;;;6.74;100.00
42591;BME280;28218;53.342;-6.216;2023-12-29T07:36:28;99949.44;;;6.73;100.00
42591;BME280;28218;53.342;-6.216;2023-12-29T07:38:56;99946.19;;;6.71;100.00
42591;BME280;28218;53.342;-6.216;2023-12-29T07:41:26;99952.72;;;6.66;100.00
42591;BME280;28218;53.342;-6.216;2023-12-29T07:43:54;99958.78;;;6.67;100.00
42591;BME280;28218;53.342;-6.216;2023-12-29T07:46:25;99953.53;;;6.67;100.00
42591;BME280;28218;53.342;-6.216;2023-12-29T07:48:54;99950.78;;;6.69;100.00
42591;BME280;28218;53.342;-6.216;2023-12-29T07:51:25;99957.97;;;6.66;100.00
42591;BME280;28218;53.342;-6.216;2023-12-29T07:53:53;99959.75;;;6.66;100.00
42591;BME280;28218;53.342;-6.216;2023-12-29T07:56:22;99964.50;;;6.62;100.00
42591;BME280;28218;53.342;-6.216;2023-12-29T07:58:51;99956.81;;;6.61;100.00
42591;BME280;28218;53.342;-6.216;2023-12-29T08:01:20;99977.25;;;6.57;100.00
42591;BME280;28218;53.342;-6.216;2023-12-29T08:03:52;99970.06;;;6.59;100.00
42591;BME280;28218;53.342;-6.216;2023-12-29T08:06:21;99964.84;;;6.59;100.00
42591;BME280;28218;53.342;-6.216;2023-12-29T08:08:49;99965.66;;;6.60;100.00
42591;BME280;28218;53.342;-6.216;2023-12-29T08:11:17;99985.91;;;6.58;100.00
42591;BME280;28218;53.342;-6.216;2023-12-29T08:13:47;99984.97;;;6.59;100.00
42591;BME280;28218;53.342;-6.216;2023-12-29T08:16:17;99990.50;;;6.56;100.00
42591;BME280;28218;53.342;-6.216;2023-12-29T08:18:46;99975.63;;;6.56;100.00
42591;BME280;28218;53.342;-6.216;2023-12-29T08:21:18;99978.41;;;6.55;100.00
42591;BME280;28218;53.342;-6.216;2023-12-29T08:23:49;99980.84;;;6.56;100.00
42591;BME280;28218;53.342;-6.216;2023-12-29T08:26:17;99982.66;;;6.56;100.00
42591;BME280;28218;53.342;-6.216;2023-12-29T08:28:45;99974.50;;;6.59;100.00
42591;BME280;28218;53.342;-6.216;2023-12-29T08:31:14;99979.22;;;6.55;100.00
42591;BME280;28218;53.342;-6.216;2023-12-29T08:33:44;99970.56;;;6.55;100.00
42591;BME280;28218;53.342;-6.216;2023-12-29T08:36:13;99981.16;;;6.53;100.00
42591;BME280;28218;53.342;-6.216;2023-12-29T08:38:41;99983.94;;;6.52;100.00
42591;BME280;28218;53.342;-6.216;2023-12-29T08:41:13;99986.56;;;6.52;100.00
42591;BME280;28218;53.342;-6.216;2023-12-29T08:43:41;99990.66;;;6.54;100.00
42591;BME280;28218;53.342;-6.216;2023-12-29T08:46:10;99992.78;;;6.51;100.00
42591;BME280;28218;53.342;-6.216;2023-12-29T08:48:38;99994.91;;;6.55;100.00
42591;BME280;28218;53.342;-6.216;2023-12-29T08:51:08;100002.44;;;6.50;100.00
42591;BME280;28218;53.342;-6.216;2023-12-29T08:53:36;99994.72;;;6.49;100.00
42591;BME280;28218;53.342;-6.216;2023-12-29T08:56:05;99998.00;;;6.51;100.00
42591;BME280;28218;53.342;-6.216;2023-12-29T08:58:34;100004.22;;;6.50;100.00
42591;BME280;28218;53.342;-6.216;2023-12-29T09:01:08;100004.22;;;6.50;100.00
42591;BME280;28218;53.342;-6.216;2023-12-29T09:03:42;100012.09;;;6.50;100.00
42591;BME280;28218;53.342;-6.216;2023-12-29T09:06:12;100019.78;;;6.51;100.00
42591;BME280;28218;53.342;-6.216;2023-12-29T09:08:40;100019.78;;;6.51;100.00
42591;BME280;28218;53.342;-6.216;2023-12-29T09:11:09;100008.31;;;6.52;100.00
42591;BME280;28218;53.342;-6.216;2023-12-29T09:13:40;100015.03;;;6.55;100.00
42591;BME280;28218;53.342;-6.216;2023-12-29T09:16:09;100008.81;;;6.56;100.00
42591;BME280;28218;53.342;-6.216;2023-12-29T09:18:37;100022.41;;;6.59;100.00
42591;BME280;28218;53.342;-6.216;2023-12-29T09:21:05;100014.09;;;6.64;100.00
42591;BME280;28218;53.342;-6.216;2023-12-29T09:23:35;100030.44;;;6.66;100.00
42591;BME280;28218;53.342;-6.216;2023-12-29T09:26:06;100057.94;;;6.70;100.00
42591;BME280;28218;53.342;-6.216;2023-12-29T09:28:34;100050.75;;;6.72;100.00
42591;BME280;28218;53.342;-6.216;2023-12-29T09:31:02;100048.13;;;6.72;100.00
42591;BME280;28218;53.342;-6.216;2023-12-29T09:33:31;100036.00;;;6.71;100.00
42591;BME280;28218;53.342;-6.216;2023-12-29T09:35:59;100041.94;;;6.73;100.00
42591;BME280;28218;53.342;-6.216;2023-12-29T09:38:27;100040.13;;;6.74;100.00
42591;BME280;28218;53.342;-6.216;2023-12-29T09:40:59;100034.88;;;6.74;100.00
42591;BME280;28218;53.342;-6.216;2023-12-29T09:43:28;100029.19;;;6.78;100.00
42591;BME280;28218;53.342;-6.216;2023-12-29T09:45:58;100024.09;;;6.85;100.00
42591;BME280;28218;53.342;-6.216;2023-12-29T09:48:27;100039.84;;;6.93;100.00
42591;BME280;28218;53.342;-6.216;2023-12-29T09:50:55;100034.75;;;7.00;100.00
42591;BME280;28218;53.342;-6.216;2023-12-29T09:53:24;100033.97;;;7.15;100.00
42591;BME280;28218;53.342;-6.216;2023-12-29T09:55:54;100035.78;;;7.23;100.00
42591;BME280;28218;53.342;-6.216;2023-12-29T09:58:24;100033.47;;;7.28;100.00
42591;BME280;28218;53.342;-6.216;2023-12-29T10:00:53;100041.16;;;7.38;100.00
42591;BME280;28218;53.342;-6.216;2023-12-29T10:03:21;100041.34;;;7.45;100.00
42591;BME280;28218;53.342;-6.216;2023-12-29T10:05:51;100044.13;;;7.51;100.00
42591;BME280;28218;53.342;-6.216;2023-12-29T10:08:23;100055.44;;;7.60;100.00
42591;BME280;28218;53.342;-6.216;2023-12-29T10:10:53;100064.28;;;7.67;100.00
42591;BME280;28218;53.342;-6.216;2023-12-29T10:13:24;100051.66;;;7.71;100.00
42591;BME280;28218;53.342;-6.216;2023-12-29T10:16:00;100069.53;;;7.67;100.00
42591;BME280;28218;53.342;-6.216;2023-12-29T10:18:37;100065.91;;;7.68;100.00
42591;BME280;28218;53.342;-6.216;2023-12-29T10:21:15;100065.56;;;7.71;100.00
42591;BME280;28218;53.342;-6.216;2023-12-29T10:23:50;100059.88;;;7.67;100.00
42591;BME280;28218;53.342;-6.216;2023-12-29T10:26:20;100057.25;;;7.67;100.00
42591;BME280;28218;53.342;-6.216;2023-12-29T10:28:50;100068.88;;;7.65;100.00
42591;BME280;28218;53.342;-6.216;2023-12-29T10:31:19;100077.72;;;7.56;100.00
42591;BME280;28218;53.342;-6.216;2023-12-29T10:33:47;100063.78;;;7.55;100.00
42591;BME280;28218;53.342;-6.216;2023-12-29T10:36:18;100066.25;;;7.49;100.00
42591;BME280;28218;53.342;-6.216;2023-12-29T10:38:46;100047.91;;;7.40;100.00
42591;BME280;28218;53.342;-6.216;2023-12-29T10:41:16;100056.41;;;7.42;100.00
42591;BME280;28218;53.342;-6.216;2023-12-29T10:43:46;100060.19;;;7.40;100.00
42591;BME280;28218;53.342;-6.216;2023-12-29T10:46:20;100061.81;;;7.41;100.00
42591;BME280;28218;53.342;-6.216;2023-12-29T10:48:49;100080.03;;;7.34;100.00
42591;BME280;28218;53.342;-6.216;2023-12-29T10:51:26;100090.63;;;7.33;100.00
42591;BME280;28218;53.342;-6.216;2023-12-29T10:53:56;100110.16;;;7.30;100.00
42591;BME280;28218;53.342;-6.216;2023-12-29T10:56:24;100104.91;;;7.30;100.00
42591;BME280;28218;53.342;-6.216;2023-12-29T10:59:00;100123.91;;;7.32;100.00
42591;BME280;28218;53.342;-6.216;2023-12-29T11:01:32;100131.75;;;7.32;100.00
42591;BME280;28218;53.342;-6.216;2023-12-29T11:04:01;100121.44;;;7.31;100.00
42591;BME280;28218;53.342;-6.216;2023-12-29T11:06:39;100141.59;;;7.30;100.00
42591;BME280;28218;53.342;-6.216;2023-12-29T11:09:09;100148.47;;;7.31;100.00
42591;BME280;28218;53.342;-6.216;2023-12-29T11:11:41;100132.75;;;7.31;100.00
42591;BME280;28218;53.342;-6.216;2023-12-29T11:14:11;100131.75;;;7.32;100.00
42591;BME280;28218;53.342;-6.216;2023-12-29T11:16:43;100127.66;;;7.38;100.00
42591;BME280;28218;53.342;-6.216;2023-12-29T11:19:12;100117.69;;;7.41;100.00
42591;BME280;28218;53.342;-6.216;2023-12-29T11:21:42;100119.00;;;7.46;100.00
42591;BME280;28218;53.342;-6.216;2023-12-29T11:24:11;100112.13;;;7.45;100.00
42591;BME280;28218;53.342;-6.216;2023-12-29T11:26:48;100106.53;;;7.48;100.00
42591;BME280;28218;53.342;-6.216;2023-12-29T11:29:17;100110.16;;;7.55;100.00
42591;BME280;28218;53.342;-6.216;2023-12-29T11:31:47;100115.91;;;7.58;100.00
42591;BME280;28218;53.342;-6.216;2023-12-29T11:34:25;100112.13;;;7.61;100.00
42591;BME280;28218;53.342;-6.216;2023-12-29T11:36:59;100100.50;;;7.63;100.00
42591;BME280;28218;53.342;-6.216;2023-12-29T11:39:38;100097.06;;;7.63;100.00
42591;BME280;28218;53.342;-6.216;2023-12-29T11:42:14;100107.88;;;7.60;100.00
42591;BME280;28218;53.342;-6.216;2023-12-29T11:44:45;100100.16;;;7.66;100.00
42591;BME280;28218;53.342;-6.216;2023-12-29T11:47:37;100106.25;;;7.67;100.00
42591;BME280;28218;53.342;-6.216;2023-12-29T11:50:09;100103.75;;;7.65;100.00
42591;BME280;28218;53.342;-6.216;2023-12-29T11:52:38;100104.59;;;7.66;100.00
42591;BME280;28218;53.342;-6.216;2023-12-29T11:55:08;100103.94;;;7.72;100.00
42591;BME280;28218;53.342;-6.216;2023-12-29T11:57:36;100102.97;;;7.81;100.00
42591;BME280;28218;53.342;-6.216;2023-12-29T12:00:06;100085.38;;;7.90;100.00
42591;BME280;28218;53.342;-6.216;2023-12-29T12:02:35;100090.97;;;7.87;100.00
42591;BME280;28218;53.342;-6.216;2023-12-29T12:05:09;100072.44;;;7.88;100.00
42591;BME280;28218;53.342;-6.216;2023-12-29T12:07:56;100094.91;;;7.91;100.00
42591;BME280;28218;53.342;-6.216;2023-12-29T12:10:31;100110.16;;;7.87;100.00
42591;BME280;28218;53.342;-6.216;2023-12-29T12:13:00;100084.91;;;7.86;100.00
42591;BME280;28218;53.342;-6.216;2023-12-29T12:15:33;100105.22;;;7.76;100.00
42591;BME280;28218;53.342;-6.216;2023-12-29T12:18:03;100109.03;;;7.82;100.00
42591;BME280;28218;53.342;-6.216;2023-12-29T12:20:36;100122.59;;;7.85;100.00
42591;BME280;28218;53.342;-6.216;2023-12-29T12:23:11;100127.22;;;7.91;100.00
42591;BME280;28218;53.342;-6.216;2023-12-29T12:25:42;100147.03;;;7.94;100.00
42591;BME280;28218;53.342;-6.216;2023-12-29T12:28:13;100136.03;;;7.99;100.00
42591;BME280;28218;53.342;-6.216;2023-12-29T12:30:42;100144.72;;;8.07;100.00
42591;BME280;28218;53.342;-6.216;2023-12-29T12:33:12;100139.81;;;8.04;100.00
42591;BME280;28218;53.342;-6.216;2023-12-29T12:35:43;100140.16;;;8.01;100.00
42591;BME280;28218;53.342;-6.216;2023-12-29T12:38:14;100138.84;;;7.97;100.00
42591;BME280;28218;53.342;-6.216;2023-12-29T12:40:47;100143.28;;;7.88;100.00
42591;BME280;28218;53.342;-6.216;2023-12-29T12:43:16;100159.81;;;7.81;100.00
42591;BME280;28218;53.342;-6.216;2023-12-29T12:45:48;100162.47;;;7.73;100.00
42591;BME280;28218;53.342;-6.216;2023-12-29T12:48:22;100155.06;;;7.68;100.00
42591;BME280;28218;53.342;-6.216;2023-12-29T12:50:53;100153.75;;;7.64;100.00
42591;BME280;28218;53.342;-6.216;2023-12-29T12:53:24;100151.44;;;7.61;100.00
42591;BME280;28218;53.342;-6.216;2023-12-29T12:55:52;100148.81;;;7.53;100.00
42591;BME280;28218;53.342;-6.216;2023-12-29T12:58:21;100142.41;;;7.47;100.00
42591;BME280;28218;53.342;-6.216;2023-12-29T13:00:50;100145.53;;;7.42;100.00